Time;durP1;ratioP1;P1;durP2;ratioP2;P2;SDS_P1;SDS_P2;PMS_P1;PMS_P2;Temp;Humidity;BMP_temperature;BMP_pressure;BME280_temperature;BME280_humidity;BME280_pressure;Samples;Min_cycle;Max_cycle;Signal;HPM_P1;HPM_P2
2022/05/25 00:02:26;;;;;;;4.70;2.00;;;;;;;;;;5053577;28;20115;-61
2022/05/25 00:04:52;;;;;;;5.22;1.60;;;;;;;;;;5053445;28;20037;-61
2022/05/25 00:07:19;;;;;;;4.78;1.73;;;;;;;;;;5053857;28;20083;-61
2022/05/25 00:09:46;;;;;;;8.13;1.85;;;;;;;;;;5053449;28;20033;-61
2022/05/25 00:12:13;;;;;;;4.00;1.88;;;;;;;;;;5053805;28;20151;-61
2022/05/25 00:14:39;;;;;;;3.75;1.55;;;;;;;;;;5052556;28;20031;-61
2022/05/25 00:17:05;;;;;;;3.20;1.45;;;;;;;;;;5064358;28;20025;-61
2022/05/25 00:22:16;;;;;;;5.55;1.55;;;;;;;;;;5053447;28;20033;-61
2022/05/25 00:24:42;;;;;;;2.10;1.50;;;;;;;;;;5053027;28;20025;-61
2022/05/25 00:27:08;;;;;;;6.78;1.65;;;;;;;;;;5053275;28;20033;-61
2022/05/25 00:29:36;;;;;;;5.45;1.58;;;;;;;;;;5051078;28;20036;-61
2022/05/25 00:32:03;;;;;;;3.28;1.70;;;;;;;;;;5053119;28;20037;-61
2022/05/25 00:34:29;;;;;;;5.22;1.50;;;;;;;;;;5052676;28;20052;-61
2022/05/25 00:36:55;;;;;;;6.28;1.65;;;;;;;;;;5053109;28;20492;-61
2022/05/25 00:39:23;;;;;;;6.07;1.58;;;;;;;;;;5067932;28;20396;-61
2022/05/25 00:41:50;;;;;;;3.75;1.73;;;;;;;;;;5052770;28;20037;-61
2022/05/25 00:44:16;;;;;;;4.05;1.70;;;;;;;;;;5053014;28;20032;-61
2022/05/25 00:46:42;;;;;;;4.10;1.50;;;;;;;;;;5053038;28;20033;-61
2022/05/25 00:49:14;;;;;;;4.20;1.48;;;;;;;;;;5052682;28;20108;-61
2022/05/25 00:51:44;;;;;;;9.77;1.60;;;;;;;;;;5052416;28;20120;-61
2022/05/25 00:54:12;;;;;;;4.15;1.40;;;;;;;;;;5053015;28;20020;-61
2022/05/25 00:56:41;;;;;;;9.77;2.60;;;;;;;;;;5052549;28;20112;-61
2022/05/25 00:59:15;;;;;;;5.90;2.55;;;;;;;;;;5052812;28;20029;-61
2022/05/25 01:01:42;;;;;;;3.35;1.30;;;;;;;;;;5052598;28;20058;-61
2022/05/25 01:04:09;;;;;;;4.03;1.30;;;;;;;;;;5052633;28;20064;-61
2022/05/25 01:06:35;;;;;;;7.47;1.73;;;;;;;;;;5052507;28;20021;-61
2022/05/25 01:09:20;;;;;;;4.22;1.40;;;;;;;;;;5052908;28;20025;-61
2022/05/25 01:11:58;;;;;;;4.70;1.70;;;;;;;;;;5052309;28;20049;-61
2022/05/25 01:14:28;;;;;;;4.43;1.65;;;;;;;;;;5052761;28;20033;-61
2022/05/25 01:17:01;;;;;;;5.30;1.40;;;;;;;;;;5052245;28;20036;-61
2022/05/25 01:19:30;;;;;;;5.20;1.65;;;;;;;;;;5052625;28;20501;-61
2022/05/25 01:21:56;;;;;;;5.88;1.60;;;;;;;;;;5054997;28;20020;-61
2022/05/25 01:24:41;;;;;;;9.52;1.55;;;;;;;;;;5052437;28;20396;-61
2022/05/25 01:27:07;;;;;;;7.47;1.95;;;;;;;;;;5052528;28;20076;-61
2022/05/25 01:29:33;;;;;;;6.05;1.45;;;;;;;;;;5052318;28;20040;-61
2022/05/25 01:32:18;;;;;;;2.60;1.17;;;;;;;;;;5052137;28;20044;-61
2022/05/25 01:35:03;;;;;;;6.15;1.33;;;;;;;;;;5052109;28;20128;-61
2022/05/25 01:37:47;;;;;;;3.58;1.63;;;;;;;;;;5052170;28;20044;-61
2022/05/25 01:40:16;;;;;;;9.50;1.10;;;;;;;;;;5037964;28;20025;-61
2022/05/25 01:42:50;;;;;;;7.38;1.50;;;;;;;;;;5054766;28;20029;-61
2022/05/25 01:45:17;;;;;;;2.42;1.25;;;;;;;;;;5067822;28;20029;-61
2022/05/25 01:47:45;;;;;;;6.85;1.88;;;;;;;;;;5057496;28;20452;-61
2022/05/25 01:50:13;;;;;;;8.02;1.60;;;;;;;;;;5056263;28;20024;-61
2022/05/25 01:52:42;;;;;;;2.78;1.20;;;;;;;;;;5056009;28;20036;-61
2022/05/25 01:55:34;;;;;;;6.38;1.40;;;;;;;;;;5056238;28;20037;-61
2022/05/25 01:58:09;;;;;;;4.17;1.43;;;;;;;;;;5030721;28;20150;-61
2022/05/25 02:00:37;;;;;;;5.53;2.05;;;;;;;;;;5077163;28;20275;-61
2022/05/25 02:06:01;;;;;;;4.82;1.55;;;;;;;;;;5055625;28;20033;-61
2022/05/25 02:08:34;;;;;;;2.83;1.45;;;;;;;;;;5056239;28;20094;-61
2022/05/25 02:11:00;;;;;;;;;;;;;;;;;;5056161;28;20028;-61
2022/05/25 02:13:49;;;;;;;6.15;1.90;;;;;;;;;;5055992;28;19915;-61
2022/05/25 02:16:28;;;;;;;6.53;1.75;;;;;;;;;;5060474;28;20032;-61
2022/05/25 02:19:00;;;;;;;5.10;1.70;;;;;;;;;;5055574;28;20029;-61
2022/05/25 02:21:31;;;;;;;4.65;1.60;;;;;;;;;;5055931;28;20051;-61
2022/05/25 02:24:20;;;;;;;5.72;1.60;;;;;;;;;;5055529;28;20029;-61
2022/05/25 02:26:53;;;;;;;3.05;1.67;;;;;;;;;;5055482;28;20504;-61
2022/05/25 02:29:23;;;;;;;5.18;2.03;;;;;;;;;;5055750;28;20123;-61
2022/05/25 02:32:16;;;;;;;4.43;2.47;;;;;;;;;;5056950;28;20033;-61
2022/05/25 02:34:44;;;;;;;5.78;1.38;;;;;;;;;;5053754;28;20049;-61
2022/05/25 02:37:10;;;;;;;3.85;1.60;;;;;;;;;;5055707;28;20037;-61
2022/05/25 02:39:36;;;;;;;9.20;1.63;;;;;;;;;;5055368;28;20516;-61
2022/05/25 02:42:03;;;;;;;3.63;1.50;;;;;;;;;;5055267;28;20033;-61
2022/05/25 02:44:29;;;;;;;4.68;1.60;;;;;;;;;;5054960;28;20060;-61
2022/05/25 02:46:55;;;;;;;2.10;1.48;;;;;;;;;;5054838;28;20033;-61
2022/05/25 02:49:21;;;;;;;3.60;1.48;;;;;;;;;;5055366;28;20033;-61
2022/05/25 02:51:47;;;;;;;2.97;1.30;;;;;;;;;;5054480;28;20029;-61
2022/05/25 02:54:13;;;;;;;5.45;1.70;;;;;;;;;;5055235;28;20029;-61
2022/05/25 02:56:40;;;;;;;3.75;1.52;;;;;;;;;;5054839;28;20037;-61
2022/05/25 02:59:06;;;;;;;3.42;1.77;;;;;;;;;;5054493;28;20082;-61
2022/05/25 03:01:33;;;;;;;5.55;1.70;;;;;;;;;;5054750;28;20563;-61
2022/05/25 03:03:59;;;;;;;4.75;1.73;;;;;;;;;;5054804;28;20029;-61
2022/05/25 03:06:26;;;;;;;4.82;1.77;;;;;;;;;;5054809;28;20067;-61
2022/05/25 03:08:52;;;;;;;3.53;1.63;;;;;;;;;;5053461;28;20455;-61
2022/05/25 03:11:18;;;;;;;3.25;1.50;;;;;;;;;;5059030;28;20063;-61
2022/05/25 03:13:48;;;;;;;4.13;1.48;;;;;;;;;;5057379;28;20032;-61
2022/05/25 03:16:15;;;;;;;4.38;1.20;;;;;;;;;;5054411;28;20028;-61
2022/05/25 03:18:43;;;;;;;3.67;1.50;;;;;;;;;;5054818;28;20025;-61
2022/05/25 03:21:09;;;;;;;3.47;1.60;;;;;;;;;;5054325;28;20519;-61
2022/05/25 03:23:36;;;;;;;4.10;1.80;;;;;;;;;;5054538;28;20057;-61
2022/05/25 03:26:02;;;;;;;3.72;1.50;;;;;;;;;;5054159;28;20033;-61
2022/05/25 03:28:28;;;;;;;4.18;1.80;;;;;;;;;;5054409;28;20063;-61
2022/05/25 03:30:54;;;;;;;8.20;1.55;;;;;;;;;;5053814;28;20504;-61
2022/05/25 03:33:20;;;;;;;3.38;1.42;;;;;;;;;;5047469;28;20461;-61
2022/05/25 03:35:46;;;;;;;4.45;2.20;;;;;;;;;;5069255;28;20111;-61
2022/05/25 03:38:12;;;;;;;2.67;1.40;;;;;;;;;;5054046;28;20021;-61
2022/05/25 03:40:39;;;;;;;4.20;1.70;;;;;;;;;;5054456;28;20076;-61
2022/05/25 03:43:06;;;;;;;4.07;1.55;;;;;;;;;;5051971;28;20025;-61
2022/05/25 03:45:32;;;;;;;3.67;1.63;;;;;;;;;;5052490;28;20481;-61
2022/05/25 03:47:58;;;;;;;5.00;1.70;;;;;;;;;;5052128;28;20029;-61
2022/05/25 03:50:25;;;;;;;4.43;1.48;;;;;;;;;;5053926;28;20043;-61
2022/05/25 03:52:51;;;;;;;2.65;1.38;;;;;;;;;;5057201;28;20025;-61
2022/05/25 03:55:17;;;;;;;8.95;1.60;;;;;;;;;;5049271;28;20401;-61
2022/05/25 03:57:43;;;;;;;5.93;1.52;;;;;;;;;;5038449;28;20508;-61
2022/05/25 04:00:11;;;;;;;7.25;1.75;;;;;;;;;;5051827;28;20052;-61
2022/05/25 04:02:37;;;;;;;3.92;1.15;;;;;;;;;;5053806;28;20048;-61
2022/05/25 04:05:09;;;;;;;8.10;1.50;;;;;;;;;;5043502;28;20393;-61
2022/05/25 04:07:40;;;;;;;1.90;1.38;;;;;;;;;;5045844;28;20563;-61
2022/05/25 04:10:07;;;;;;;8.35;1.73;;;;;;;;;;5063401;28;20078;-61
2022/05/25 04:12:34;;;;;;;4.30;1.45;;;;;;;;;;5052339;28;20028;-61
2022/05/25 04:15:00;;;;;;;6.90;1.42;;;;;;;;;;5051901;28;20032;-61
2022/05/25 04:17:26;;;;;;;7.03;2.00;;;;;;;;;;5053637;28;20469;-61
2022/05/25 04:19:52;;;;;;;4.03;1.38;;;;;;;;;;5047170;28;20035;-61
2022/05/25 04:22:18;;;;;;;4.75;1.67;;;;;;;;;;5052389;28;20109;-61
2022/05/25 04:24:44;;;;;;;2.55;1.25;;;;;;;;;;5053695;28;20544;-61
2022/05/25 04:27:12;;;;;;;6.85;1.27;;;;;;;;;;5052522;28;20029;-62
2022/05/25 04:29:39;;;;;;;7.65;1.33;;;;;;;;;;5053269;28;20033;-62
2022/05/25 04:32:06;;;;;;;2.08;1.00;;;;;;;;;;5037024;28;20030;-62
2022/05/25 04:34:32;;;;;;;3.25;1.25;;;;;;;;;;5053276;28;20063;-62
2022/05/25 04:37:48;;;;;;;8.48;1.50;;;;;;;;;;5053374;28;20021;-62
2022/05/25 04:39:45;;;;;;;3.47;1.30;;;;;;;;;;5052827;28;20120;-62
2022/05/25 04:42:11;;;;;;;7.22;1.52;;;;;;;;;;5052832;28;20147;-62
2022/05/25 04:44:37;;;;;;;3.10;1.23;;;;;;;;;;5052350;28;20489;-62
2022/05/25 04:47:07;;;;;;;7.28;1.40;;;;;;;;;;5052830;28;20021;-62
2022/05/25 04:49:33;;;;;;;4.22;1.00;;;;;;;;;;5047518;28;20432;-62
2022/05/25 04:51:59;;;;;;;3.88;1.33;;;;;;;;;;5052751;28;20033;-62
2022/05/25 04:54:25;;;;;;;5.50;1.50;;;;;;;;;;5039425;28;20438;-62
2022/05/25 04:59:36;;;;;;;10.70;1.88;;;;;;;;;;5043905;28;20036;-62
2022/05/25 05:02:03;;;;;;;5.25;1.55;;;;;;;;;;5049323;28;20712;-62
2022/05/25 05:04:29;;;;;;;6.32;1.85;;;;;;;;;;5040348;28;20112;-62
2022/05/25 05:06:55;;;;;;;9.52;1.73;;;;;;;;;;5052203;28;20029;-62
2022/05/25 05:09:21;;;;;;;6.30;1.60;;;;;;;;;;5047281;28;20078;-62
2022/05/25 05:11:47;;;;;;;6.53;1.48;;;;;;;;;;5051282;28;20050;-62
2022/05/25 05:14:16;;;;;;;8.38;1.88;;;;;;;;;;5050583;28;20025;-62
2022/05/25 05:16:42;;;;;;;5.70;1.90;;;;;;;;;;5046078;28;20094;-62
2022/05/25 05:19:21;;;;;;;7.45;2.20;;;;;;;;;;5050090;28;20035;-62
2022/05/25 05:21:57;;;;;;;6.88;1.90;;;;;;;;;;5050575;28;20025;-62
2022/05/25 05:24:24;;;;;;;3.92;1.67;;;;;;;;;;5051467;28;20028;-62
2022/05/25 05:26:50;;;;;;;9.57;2.58;;;;;;;;;;5045065;28;20473;-62
2022/05/25 05:29:16;;;;;;;9.90;1.63;;;;;;;;;;5043194;28;20473;-62
2022/05/25 05:31:43;;;;;;;2.50;1.30;;;;;;;;;;5054950;28;20450;-62
2022/05/25 05:34:09;;;;;;;8.07;1.50;;;;;;;;;;5055060;28;20036;-62
2022/05/25 05:36:37;;;;;;;8.75;1.73;;;;;;;;;;5048016;28;20033;-62
2022/05/25 05:39:05;;;;;;;10.35;1.63;;;;;;;;;;5049198;28;20393;-62
2022/05/25 05:41:43;;;;;;;8.23;1.52;;;;;;;;;;5050738;28;20397;-62
2022/05/25 05:44:10;;;;;;;9.00;1.60;;;;;;;;;;5050309;28;20128;-62
2022/05/25 05:46:38;;;;;;;6.80;1.50;;;;;;;;;;5051510;28;20036;-62
2022/05/25 05:49:09;;;;;;;13.10;2.30;;;;;;;;;;5051767;28;20162;-62
2022/05/25 05:51:36;;;;;;;13.88;2.33;;;;;;;;;;5051407;28;20095;-62
2022/05/25 05:54:02;;;;;;;12.43;2.58;;;;;;;;;;5051759;28;20114;-62
2022/05/25 05:56:29;;;;;;;8.13;1.30;;;;;;;;;;5036563;28;20037;-62
2022/05/25 05:58:55;;;;;;;7.72;1.85;;;;;;;;;;5051927;28;20024;-62
2022/05/25 06:01:22;;;;;;;7.75;1.70;;;;;;;;;;5084185;28;20036;-62
2022/05/25 06:03:48;;;;;;;7.53;1.80;;;;;;;;;;5055868;28;20032;-62
2022/05/25 06:06:14;;;;;;;9.10;1.60;;;;;;;;;;5045085;28;20465;-61
2022/05/25 06:08:40;;;;;;;12.98;2.03;;;;;;;;;;5048003;28;20029;-62
2022/05/25 06:11:07;;;;;;;10.85;1.30;;;;;;;;;;5043828;28;20033;-62
2022/05/25 06:13:33;;;;;;;8.98;1.10;;;;;;;;;;5047865;28;20018;-62
2022/05/25 06:21:29;;;;;;;6.00;1.85;;;;;;;;;;5047269;28;20458;-62
2022/05/25 06:23:56;;;;;;;9.75;1.65;;;;;;;;;;5046551;28;20032;-62
2022/05/25 06:26:27;;;;;;;7.95;1.80;;;;;;;;;;5043673;28;20025;-62
2022/05/25 06:28:53;;;;;;;7.97;1.55;;;;;;;;;;5049939;28;20138;-62
2022/05/25 06:31:19;;;;;;;9.70;1.40;;;;;;;;;;5054077;28;20132;-62
2022/05/25 06:33:46;;;;;;;8.57;1.83;;;;;;;;;;5054328;28;20035;-62
2022/05/25 06:36:13;;;;;;;14.82;1.70;;;;;;;;;;5054390;28;20370;-62
2022/05/25 06:38:39;;;;;;;4.90;1.83;;;;;;;;;;5053237;28;20027;-62
2022/05/25 06:41:05;;;;;;;8.13;1.15;;;;;;;;;;5054442;28;20035;-62
2022/05/25 06:43:32;;;;;;;12.63;1.55;;;;;;;;;;5053471;28;20067;-62
2022/05/25 06:45:58;;;;;;;10.90;1.60;;;;;;;;;;5046239;28;20084;-62
2022/05/25 06:48:24;;;;;;;11.32;1.55;;;;;;;;;;5055839;28;20374;-62
2022/05/25 06:50:50;;;;;;;5.10;1.42;;;;;;;;;;5046497;28;20080;-62
2022/05/25 06:53:16;;;;;;;7.53;1.42;;;;;;;;;;5044974;28;20379;-62
2022/05/25 06:55:42;;;;;;;9.77;1.52;;;;;;;;;;5048280;28;20033;-62
2022/05/25 06:58:09;;;;;;;9.57;1.65;;;;;;;;;;5055076;28;20059;-62
2022/05/25 07:00:35;;;;;;;11.88;1.55;;;;;;;;;;5059058;28;20029;-62
2022/05/25 07:03:05;;;;;;;11.00;1.58;;;;;;;;;;5048951;28;20497;-62
2022/05/25 07:05:32;;;;;;;10.77;2.00;;;;;;;;;;5049938;28;20060;-62
2022/05/25 07:07:58;;;;;;;7.20;1.50;;;;;;;;;;5051031;28;20465;-62
2022/05/25 07:10:24;;;;;;;13.93;1.58;;;;;;;;;;5057972;28;20091;-62
2022/05/25 07:12:50;;;;;;;9.32;1.88;;;;;;;;;;5048258;28;20108;-62
2022/05/25 07:15:16;;;;;;;10.25;1.67;;;;;;;;;;5049547;28;20501;-62
2022/05/25 07:17:43;;;;;;;14.85;2.15;;;;;;;;;;5049827;28;20079;-62
2022/05/25 07:20:09;;;;;;;10.70;1.60;;;;;;;;;;5052721;28;20111;-62
2022/05/25 07:22:36;;;;;;;6.78;1.90;;;;;;;;;;5053099;28;20033;-62
2022/05/25 07:25:02;;;;;;;12.75;1.85;;;;;;;;;;5051096;28;20130;-62
2022/05/25 07:27:29;;;;;;;10.98;2.13;;;;;;;;;;5051480;28;20035;-62
2022/05/25 07:29:55;;;;;;;5.55;1.20;;;;;;;;;;5053809;28;20037;-62
2022/05/25 07:32:22;;;;;;;9.60;2.00;;;;;;;;;;5053497;28;20037;-62
2022/05/25 07:34:54;;;;;;;17.17;1.75;;;;;;;;;;5049521;28;20029;-69
2022/05/25 07:37:22;;;;;;;8.90;1.65;;;;;;;;;;5049096;28;20036;-62
2022/05/25 07:39:53;;;;;;;14.70;3.35;;;;;;;;;;5050111;28;20033;-62
2022/05/25 07:42:20;;;;;;;13.73;2.58;;;;;;;;;;5042077;28;20029;-62
2022/05/25 07:44:49;;;;;;;10.02;1.50;;;;;;;;;;5058777;28;20036;-62
2022/05/25 07:47:15;;;;;;;7.10;1.65;;;;;;;;;;5054532;28;20103;-62
2022/05/25 07:49:42;;;;;;;7.18;1.63;;;;;;;;;;5052576;28;20037;-62
2022/05/25 07:52:09;;;;;;;9.50;1.50;;;;;;;;;;5047437;28;20427;-62
2022/05/25 07:54:35;;;;;;;10.57;1.40;;;;;;;;;;5050905;28;20029;-62
2022/05/25 07:57:01;;;;;;;13.32;1.95;;;;;;;;;;5048935;28;20369;-63
2022/05/25 07:59:27;;;;;;;12.65;1.67;;;;;;;;;;5048439;28;20040;-64
2022/05/25 08:07:26;;;;;;;11.95;2.53;;;;;;;;;;5037388;28;20075;-63
2022/05/25 08:09:54;;;;;;;6.28;1.40;;;;;;;;;;5043544;28;20033;-63
2022/05/25 08:12:21;;;;;;;10.77;1.65;;;;;;;;;;5069263;28;20108;-63
2022/05/25 08:14:47;;;;;;;10.27;1.58;;;;;;;;;;5051397;28;20087;-63
2022/05/25 08:17:14;;;;;;;5.30;1.17;;;;;;;;;;5051000;28;20021;-63
2022/05/25 08:19:40;;;;;;;14.23;1.60;;;;;;;;;;5052657;28;20099;-63
2022/05/25 08:22:07;;;;;;;6.85;1.48;;;;;;;;;;5052137;28;20120;-63
2022/05/25 08:24:34;;;;;;;4.53;1.33;;;;;;;;;;5051477;28;20034;-63
2022/05/25 08:27:00;;;;;;;8.70;1.48;;;;;;;;;;5044376;28;20078;-63
2022/05/25 08:29:26;;;;;;;13.57;1.95;;;;;;;;;;5046997;28;20037;-63
2022/05/25 08:31:55;;;;;;;4.30;1.10;;;;;;;;;;5044027;28;20029;-63
2022/05/25 08:34:25;;;;;;;7.38;1.40;;;;;;;;;;5045272;28;20047;-63
2022/05/25 08:36:51;;;;;;;9.20;1.65;;;;;;;;;;5049856;28;20075;-63
2022/05/25 08:39:17;;;;;;;11.68;1.33;;;;;;;;;;5042680;28;20049;-63
2022/05/25 08:41:44;;;;;;;10.70;1.83;;;;;;;;;;5045387;28;20035;-63
2022/05/25 08:44:11;;;;;;;5.38;1.83;;;;;;;;;;5045070;28;20417;-63
2022/05/25 08:46:38;;;;;;;8.23;1.75;;;;;;;;;;5050289;28;20481;-63
2022/05/25 08:49:07;;;;;;;5.82;1.88;;;;;;;;;;5042666;28;20485;-63
2022/05/25 08:51:34;;;;;;;8.10;1.63;;;;;;;;;;5047352;28;20025;-64
2022/05/25 08:54:00;;;;;;;8.85;1.65;;;;;;;;;;5048003;28;20052;-63
2022/05/25 08:56:32;;;;;;;8.55;1.92;;;;;;;;;;5042960;28;20037;-63
2022/05/25 08:58:59;;;;;;;5.07;1.55;;;;;;;;;;5047745;28;20021;-63
2022/05/25 09:01:28;;;;;;;5.05;1.35;;;;;;;;;;5046581;28;20029;-63
2022/05/25 09:03:54;;;;;;;12.55;1.95;;;;;;;;;;5046055;28;20044;-63
2022/05/25 09:06:34;;;;;;;7.13;1.80;;;;;;;;;;5045149;28;20029;-64
2022/05/25 09:09:04;;;;;;;10.32;1.85;;;;;;;;;;5046534;28;20017;-63
2022/05/25 09:11:50;;;;;;;8.98;1.65;;;;;;;;;;5049134;28;20048;-63
2022/05/25 09:14:16;;;;;;;11.48;1.83;;;;;;;;;;5045776;28;20116;-63
2022/05/25 09:16:43;;;;;;;4.63;1.48;;;;;;;;;;5047015;28;20025;-63
2022/05/25 09:19:12;;;;;;;6.18;1.58;;;;;;;;;;5044346;28;20082;-63
2022/05/25 09:21:46;;;;;;;2.90;1.15;;;;;;;;;;5049904;28;20421;-63
2022/05/25 09:24:15;;;;;;;6.93;1.38;;;;;;;;;;5045501;28;20029;-63
2022/05/25 09:26:42;;;;;;;6.60;1.52;;;;;;;;;;5044388;28;20036;-63
2022/05/25 09:29:10;;;;;;;11.15;1.42;;;;;;;;;;5040937;28;20113;-63
2022/05/25 09:31:41;;;;;;;7.05;1.30;;;;;;;;;;5042124;28;20032;-63
2022/05/25 09:34:11;;;;;;;4.30;1.52;;;;;;;;;;5047304;28;20481;-63
2022/05/25 09:36:47;;;;;;;8.35;1.58;;;;;;;;;;5047345;28;20097;-63
2022/05/25 09:39:13;;;;;;;8.85;1.40;;;;;;;;;;5045458;28;20020;-63
2022/05/25 09:41:42;;;;;;;6.15;1.48;;;;;;;;;;5046793;28;20099;-63
2022/05/25 09:44:10;;;;;;;7.18;1.42;;;;;;;;;;5051909;28;20021;-63
2022/05/25 09:46:40;;;;;;;5.10;1.60;;;;;;;;;;5047862;28;20622;-63
2022/05/25 09:49:08;;;;;;;8.27;1.80;;;;;;;;;;5046425;28;20032;-63
2022/05/25 09:51:45;;;;;;;4.95;1.60;;;;;;;;;;5047480;28;20033;-63
2022/05/25 09:54:37;;;;;;;6.00;1.70;;;;;;;;;;5047560;28;20021;-63
2022/05/25 09:57:08;;;;;;;5.13;1.35;;;;;;;;;;5041898;28;20460;-63
2022/05/25 09:59:36;;;;;;;3.67;0.95;;;;;;;;;;5045410;28;20033;-63
2022/05/25 10:02:08;;;;;;;10.48;1.48;;;;;;;;;;5049741;28;20075;-62
2022/05/25 10:04:51;;;;;;;6.35;1.55;;;;;;;;;;5050230;28;20033;-63
2022/05/25 10:07:37;;;;;;;3.25;1.38;;;;;;;;;;5053392;28;20554;-63
2022/05/25 10:10:06;;;;;;;7.13;1.83;;;;;;;;;;5050107;28;20021;-63
2022/05/25 10:12:40;;;;;;;9.10;1.98;;;;;;;;;;5046496;28;20033;-63
2022/05/25 10:15:06;;;;;;;8.05;2.78;;;;;;;;;;5052612;28;20021;-63
2022/05/25 10:17:51;;;;;;;10.65;2.63;;;;;;;;;;5050640;28;20104;-63
2022/05/25 10:20:20;;;;;;;12.43;2.90;;;;;;;;;;5040108;28;20035;-63
2022/05/25 10:22:46;;;;;;;7.55;1.50;;;;;;;;;;5045136;28;20107;-63
2022/05/25 10:25:21;;;;;;;10.88;1.92;;;;;;;;;;5045368;28;20025;-62
2022/05/25 10:27:48;;;;;;;6.68;1.95;;;;;;;;;;5045766;28;20029;-62
2022/05/25 10:38:43;;;;;;;11.95;1.95;;;;;;;;;;5052293;28;20037;-62
2022/05/25 10:44:00;;;;;;;8.82;1.73;;;;;;;;;;5042301;28;20116;-62
2022/05/25 10:46:28;;;;;;;8.32;2.10;;;;;;;;;;5044085;28;20036;-62
2022/05/25 10:49:03;;;;;;;9.20;2.15;;;;;;;;;;5041353;28;20037;-62
2022/05/25 10:51:38;;;;;;;8.77;1.60;;;;;;;;;;5042899;28;20025;-62
2022/05/25 10:56:56;;;;;;;7.32;1.98;;;;;;;;;;5045089;28;20087;-62
2022/05/25 10:59:30;;;;;;;12.32;2.97;;;;;;;;;;5041977;28;20057;-62
2022/05/25 11:02:22;;;;;;;9.32;2.30;;;;;;;;;;5046896;28;20374;-63
2022/05/25 11:05:09;;;;;;;7.20;2.13;;;;;;;;;;5053307;28;20033;-63
2022/05/25 11:07:38;;;;;;;10.88;1.80;;;;;;;;;;5045175;28;20037;-63
2022/05/25 11:10:22;;;;;;;7.60;1.85;;;;;;;;;;5041904;28;20470;-63
2022/05/25 11:12:55;;;;;;;10.10;1.95;;;;;;;;;;5053939;28;20456;-62
2022/05/25 11:15:27;;;;;;;8.13;2.05;;;;;;;;;;5045398;28;20025;-62
2022/05/25 11:18:03;;;;;;;12.68;1.95;;;;;;;;;;5043060;28;20037;-62
2022/05/25 11:20:34;;;;;;;10.23;2.67;;;;;;;;;;5047829;28;20029;-62
2022/05/25 11:23:22;;;;;;;14.07;3.05;;;;;;;;;;5049860;28;20080;-62
2022/05/25 11:26:07;;;;;;;9.45;1.80;;;;;;;;;;5046879;28;20444;-62
2022/05/25 11:28:52;;;;;;;16.75;2.90;;;;;;;;;;5048729;28;20068;-62
2022/05/25 11:31:18;;;;;;;9.82;2.30;;;;;;;;;;5048702;28;20120;-62
2022/05/25 11:33:47;;;;;;;12.05;2.55;;;;;;;;;;5043986;28;20060;-75
2022/05/25 11:36:32;;;;;;;10.60;2.35;;;;;;;;;;5048182;28;20017;-62
2022/05/25 11:39:12;;;;;;;9.55;1.88;;;;;;;;;;5046913;28;20044;-62
2022/05/25 11:41:43;;;;;;;10.23;1.85;;;;;;;;;;5051214;28;20063;-63
2022/05/25 11:44:35;;;;;;;12.35;2.20;;;;;;;;;;5042702;28;20032;-63
2022/05/25 11:47:10;;;;;;;11.65;1.77;;;;;;;;;;5051647;28;20037;-63
2022/05/25 11:49:37;;;;;;;10.32;2.28;;;;;;;;;;5039155;28;20037;-62
2022/05/25 11:52:15;;;;;;;10.05;2.13;;;;;;;;;;5041908;28;20064;-62
2022/05/25 11:54:56;;;;;;;8.18;2.20;;;;;;;;;;5040272;28;20048;-63
2022/05/25 11:57:41;;;;;;;7.78;2.45;;;;;;;;;;5049574;28;20477;-62
2022/05/25 12:00:16;;;;;;;8.85;1.75;;;;;;;;;;5046863;28;20485;-63
2022/05/25 12:02:53;;;;;;;7.15;1.65;;;;;;;;;;5044124;28;20022;-62
2022/05/25 12:05:22;;;;;;;6.32;1.77;;;;;;;;;;5048611;28;20029;-62
2022/05/25 12:08:02;;;;;;;8.85;2.40;;;;;;;;;;5049757;28;20132;-62
2022/05/25 12:10:31;;;;;;;9.30;1.48;;;;;;;;;;5048774;28;20037;-63
2022/05/25 12:13:12;;;;;;;4.35;0.85;;;;;;;;;;5044984;28;20041;-63
2022/05/25 12:15:48;;;;;;;5.63;1.00;;;;;;;;;;5039407;28;20244;-63
2022/05/25 12:18:18;;;;;;;7.53;0.98;;;;;;;;;;5041399;28;20040;-63
2022/05/25 12:20:53;;;;;;;2.67;0.88;;;;;;;;;;5043371;28;20500;-62
2022/05/25 12:23:22;;;;;;;7.22;1.30;;;;;;;;;;5042932;28;20434;-63
2022/05/25 12:25:56;;;;;;;3.15;1.10;;;;;;;;;;5040744;28;20017;-63
2022/05/25 12:28:28;;;;;;;6.15;1.23;;;;;;;;;;5041575;28;20028;-62
2022/05/25 12:30:58;;;;;;;3.83;0.98;;;;;;;;;;5041214;28;20033;-63
2022/05/25 12:33:26;;;;;;;3.35;1.08;;;;;;;;;;5041651;28;20049;-62
2022/05/25 12:35:52;;;;;;;7.00;1.60;;;;;;;;;;5049855;28;20035;-62
2022/05/25 12:38:20;;;;;;;7.32;1.52;;;;;;;;;;5044739;28;20176;-63
2022/05/25 12:40:50;;;;;;;9.52;1.48;;;;;;;;;;5045684;28;20031;-63
2022/05/25 12:43:37;;;;;;;8.98;1.45;;;;;;;;;;5045831;28;20291;-63
2022/05/25 12:48:54;;;;;;;7.97;1.58;;;;;;;;;;5047272;28;20924;-63
2022/05/25 12:51:28;;;;;;;7.63;1.80;;;;;;;;;;5045467;28;20420;-63
2022/05/25 12:53:54;;;;;;;7.15;2.15;;;;;;;;;;5045662;28;20032;-63
2022/05/25 12:56:21;;;;;;;10.40;2.25;;;;;;;;;;5049601;28;20041;-63
2022/05/25 12:58:50;;;;;;;12.70;2.35;;;;;;;;;;5047436;28;20047;-63
2022/05/25 13:01:28;;;;;;;11.98;2.45;;;;;;;;;;5048970;28;20409;-63
2022/05/25 13:03:54;;;;;;;8.07;2.05;;;;;;;;;;5043898;28;20096;-63
2022/05/25 13:06:43;;;;;;;18.42;2.63;;;;;;;;;;5045326;28;20040;-63
2022/05/25 13:09:28;;;;;;;14.02;3.55;;;;;;;;;;5004851;28;20046;-63
2022/05/25 13:11:58;;;;;;;17.27;3.60;;;;;;;;;;5005292;28;20486;-63
2022/05/25 13:14:25;;;;;;;21.73;4.07;;;;;;;;;;5005323;28;20052;-63
2022/05/25 13:16:55;;;;;;;21.35;4.10;;;;;;;;;;5006807;28;20021;-63
2022/05/25 13:19:22;;;;;;;11.25;3.08;;;;;;;;;;5005693;28;20060;-63
2022/05/25 13:22:02;;;;;;;12.27;3.05;;;;;;;;;;5006994;28;20522;-63
2022/05/25 13:24:46;;;;;;;12.60;2.85;;;;;;;;;;5004774;28;20046;-63
2022/05/25 13:27:21;;;;;;;13.52;2.55;;;;;;;;;;5006535;28;20108;-63
2022/05/25 13:30:01;;;;;;;11.32;3.13;;;;;;;;;;5005820;28;20438;-63
2022/05/25 13:32:46;;;;;;;22.30;3.72;;;;;;;;;;5004267;28;20057;-63
2022/05/25 13:35:15;;;;;;;15.25;2.95;;;;;;;;;;5006498;28;20037;-63
2022/05/25 13:37:41;;;;;;;16.33;2.97;;;;;;;;;;5004705;28;20054;-62
2022/05/25 13:40:11;;;;;;;16.02;3.20;;;;;;;;;;5006582;28;20401;-62
2022/05/25 13:42:41;;;;;;;21.02;3.53;;;;;;;;;;5007831;28;20080;-63
2022/05/25 13:45:10;;;;;;;20.45;4.82;;;;;;;;;;5010160;28;20030;-63
2022/05/25 13:47:36;;;;;;;16.02;3.72;;;;;;;;;;5044997;28;20032;-62
2022/05/25 13:50:02;;;;;;;19.67;4.80;;;;;;;;;;5040403;28;20065;-63
2022/05/25 13:52:31;;;;;;;26.73;4.55;;;;;;;;;;5040690;28;20037;-63
2022/05/25 13:55:04;;;;;;;24.45;4.68;;;;;;;;;;5044236;28;20025;-63
2022/05/25 13:57:31;;;;;;;32.60;4.80;;;;;;;;;;5042699;28;20045;-63
2022/05/25 14:00:00;;;;;;;27.10;5.00;;;;;;;;;;5047297;28;20603;-63
2022/05/25 14:02:31;;;;;;;30.60;5.28;;;;;;;;;;5048583;28;20412;-62
2022/05/25 14:05:04;;;;;;;26.75;4.88;;;;;;;;;;5043844;28;20479;-63
2022/05/25 14:07:38;;;;;;;33.85;5.60;;;;;;;;;;5044951;28;20037;-63
2022/05/25 14:12:52;;;;;;;25.35;4.90;;;;;;;;;;5044355;28;20040;-62
2022/05/25 14:15:20;;;;;;;28.08;4.82;;;;;;;;;;5040121;28;20029;-62
2022/05/25 14:17:55;;;;;;;33.42;4.82;;;;;;;;;;5042479;28;20025;-62
2022/05/25 14:20:22;;;;;;;29.65;4.80;;;;;;;;;;5043668;28;20025;-63
2022/05/25 14:22:49;;;;;;;34.72;5.15;;;;;;;;;;5043957;28;20123;-62
2022/05/25 14:25:18;;;;;;;18.05;4.03;;;;;;;;;;5039777;28;20492;-62
2022/05/25 14:27:47;;;;;;;25.80;4.78;;;;;;;;;;5040613;28;20057;-63
2022/05/25 14:30:29;;;;;;;18.83;4.55;;;;;;;;;;5040247;28;20112;-63
2022/05/25 14:33:03;;;;;;;27.35;4.28;;;;;;;;;;5039067;28;20029;-62
2022/05/25 14:35:32;;;;;;;29.67;5.65;;;;;;;;;;5041459;28;20478;-63
2022/05/25 14:38:01;;;;;;;18.85;4.00;;;;;;;;;;5044133;28;20021;-63
2022/05/25 14:40:29;;;;;;;23.98;4.25;;;;;;;;;;5043056;28;20124;-63
2022/05/25 14:43:03;;;;;;;24.83;4.75;;;;;;;;;;5043187;28;20070;-63
2022/05/25 14:45:29;;;;;;;27.38;4.75;;;;;;;;;;5039881;28;20472;-63
2022/05/25 14:48:06;;;;;;;29.88;5.15;;;;;;;;;;5047790;28;20382;-63
2022/05/25 14:50:33;;;;;;;27.95;5.35;;;;;;;;;;5051360;28;20441;-63
2022/05/25 14:53:04;;;;;;;24.48;4.75;;;;;;;;;;5047721;28;20060;-63
2022/05/25 14:55:36;;;;;;;21.63;4.50;;;;;;;;;;5046817;28;20025;-63
2022/05/25 14:58:08;;;;;;;29.67;5.28;;;;;;;;;;5047374;28;20493;-63
2022/05/25 15:00:38;;;;;;;26.52;5.47;;;;;;;;;;5049689;28;20037;-63
2022/05/25 15:03:04;;;;;;;29.58;5.32;;;;;;;;;;5048186;28;20040;-63
2022/05/25 15:05:36;;;;;;;24.85;5.13;;;;;;;;;;5045497;28;20080;-63
2022/05/25 15:08:03;;;;;;;23.77;6.00;;;;;;;;;;5047822;28;20108;-63
2022/05/25 15:10:30;;;;;;;26.10;5.53;;;;;;;;;;5047315;28;20287;-63
2022/05/25 15:12:57;;;;;;;23.98;4.53;;;;;;;;;;5045808;28;20033;-63
2022/05/25 15:18:30;;;;;;;25.58;4.28;;;;;;;;;;5046717;28;20033;-63
2022/05/25 15:20:59;;;;;;;30.10;6.50;;;;;;;;;;5051136;28;20440;-63
2022/05/25 15:23:35;;;;;;;26.23;5.00;;;;;;;;;;5048580;28;20500;-63
2022/05/25 15:26:10;;;;;;;30.52;6.07;;;;;;;;;;5048418;28;20025;-63
2022/05/25 15:28:36;;;;;;;30.88;5.40;;;;;;;;;;5051431;28;20469;-63
2022/05/25 15:31:03;;;;;;;29.50;5.90;;;;;;;;;;5050039;28;20028;-63
2022/05/25 15:33:34;;;;;;;22.88;4.53;;;;;;;;;;5054397;28;20059;-63
2022/05/25 15:36:03;;;;;;;33.75;4.97;;;;;;;;;;5049888;28;20057;-63
2022/05/25 15:38:30;;;;;;;21.52;4.20;;;;;;;;;;5047324;28;20104;-63